<?xml version="1.0" encoding="UTF-8" standalone="no" ?>
<gpx xmlns="http://www.topografix.com/GPX/1/1" xmlns:xsi="http://www.w3.org/2001/XMLSchema-instance" xsi:schemaLocation="http://www.topografix.com/GPX/1/1 http://www.topografix.com/GPX/1/1/gpx.xsd" version="1.1" creator="VisuGPX - https://www.visugpx.com">
  <metadata>
    <name>nocturne 10 2015</name>
    <desc><![CDATA[circuit nocturne allo ouine rayon vert]]></desc>
  </metadata>
  <trk>
    <name><![CDATA[option]]></name>
    <trkseg>
      <trkpt lat="45.55466" lon="0.69044">
        <ele>269</ele>
        <time>2013-01-27T09:01:25Z</time>
      </trkpt>
      <trkpt lat="45.55501" lon="0.69074">
        <ele>270</ele>
        <time>2013-01-27T09:01:38Z</time>
      </trkpt>
      <trkpt lat="45.55535" lon="0.69102">
        <ele>272</ele>
        <time>2013-01-27T09:01:50Z</time>
      </trkpt>
      <trkpt lat="45.55567" lon="0.6913">
        <ele>272</ele>
        <time>2013-01-27T09:01:59Z</time>
      </trkpt>
      <trkpt lat="45.5561" lon="0.69167">
        <ele>276</ele>
        <time>2013-01-27T09:02:10Z</time>
      </trkpt>
      <trkpt lat="45.55637" lon="0.69196">
        <ele>277</ele>
        <time>2013-01-27T09:02:19Z</time>
      </trkpt>
      <trkpt lat="45.55667" lon="0.69228">
        <ele>279</ele>
        <time>2013-01-27T09:02:30Z</time>
      </trkpt>
      <trkpt lat="45.557" lon="0.69275">
        <ele>279</ele>
        <time>2013-01-27T09:02:45Z</time>
      </trkpt>
      <trkpt lat="45.5572" lon="0.69314">
        <ele>279</ele>
        <time>2013-01-27T09:02:57Z</time>
      </trkpt>
      <trkpt lat="45.55733" lon="0.69365">
        <ele>280</ele>
        <time>2013-01-27T09:03:09Z</time>
      </trkpt>
      <trkpt lat="45.55747" lon="0.69434">
        <ele>280</ele>
        <time>2013-01-27T09:03:23Z</time>
      </trkpt>
      <trkpt lat="45.55759" lon="0.69496">
        <ele>280</ele>
        <time>2013-01-27T09:03:38Z</time>
      </trkpt>
      <trkpt lat="45.5577" lon="0.69538">
        <ele>280</ele>
        <time>2013-01-27T09:03:50Z</time>
      </trkpt>
      <trkpt lat="45.55776" lon="0.69553">
        <ele>280</ele>
        <time>2013-01-27T09:03:53Z</time>
      </trkpt>
      <trkpt lat="45.55799" lon="0.69603">
        <ele>278</ele>
        <time>2013-01-27T09:04:03Z</time>
      </trkpt>
      <trkpt lat="45.55816" lon="0.69651">
        <ele>276</ele>
        <time>2013-01-27T09:04:13Z</time>
      </trkpt>
      <trkpt lat="45.55831" lon="0.69714">
        <ele>275</ele>
        <time>2013-01-27T09:04:25Z</time>
      </trkpt>
      <trkpt lat="45.55842" lon="0.6976">
        <ele>274</ele>
        <time>2013-01-27T09:04:35Z</time>
      </trkpt>
      <trkpt lat="45.55847" lon="0.69788">
        <ele>273</ele>
        <time>2013-01-27T09:04:40Z</time>
      </trkpt>
      <trkpt lat="45.55848" lon="0.69802">
        <ele>273</ele>
        <time>2013-01-27T09:04:42Z</time>
      </trkpt>
      <trkpt lat="45.55857" lon="0.69833">
        <ele>273</ele>
        <time>2013-01-27T09:04:46Z</time>
      </trkpt>
      <trkpt lat="45.55882" lon="0.69875">
        <ele>268</ele>
        <time>2013-01-27T09:04:53Z</time>
      </trkpt>
      <trkpt lat="45.55879" lon="0.69891">
        <ele>268</ele>
        <time>2013-01-27T09:04:58Z</time>
      </trkpt>
      <trkpt lat="45.5587" lon="0.69895">
        <ele>268</ele>
        <time>2013-01-27T09:05:01Z</time>
      </trkpt>
      <trkpt lat="45.5585" lon="0.69898">
        <ele>268</ele>
        <time>2013-01-27T09:05:08Z</time>
      </trkpt>
      <trkpt lat="45.5583" lon="0.69909">
        <ele>266</ele>
        <time>2013-01-27T09:05:19Z</time>
      </trkpt>
      <trkpt lat="45.55828" lon="0.69912">
        <ele>266</ele>
        <time>2013-01-27T09:05:20Z</time>
      </trkpt>
      <trkpt lat="45.55821" lon="0.69923">
        <ele>263</ele>
        <time>2013-01-27T09:05:25Z</time>
      </trkpt>
      <trkpt lat="45.55815" lon="0.69929">
        <ele>262</ele>
        <time>2013-01-27T09:05:28Z</time>
      </trkpt>
      <trkpt lat="45.5581" lon="0.69935">
        <ele>261</ele>
        <time>2013-01-27T09:05:31Z</time>
      </trkpt>
      <trkpt lat="45.55801" lon="0.69929">
        <ele>261</ele>
        <time>2013-01-27T09:05:38Z</time>
      </trkpt>
      <trkpt lat="45.55802" lon="0.69923">
        <ele>261</ele>
        <time>2013-01-27T09:05:43Z</time>
      </trkpt>
      <trkpt lat="45.55803" lon="0.6992">
        <ele>261</ele>
        <time>2013-01-27T09:05:49Z</time>
      </trkpt>
      <trkpt lat="45.55793" lon="0.69918">
        <ele>260</ele>
        <time>2013-01-27T09:05:56Z</time>
      </trkpt>
      <trkpt lat="45.55788" lon="0.69918">
        <ele>260</ele>
        <time>2013-01-27T09:05:59Z</time>
      </trkpt>
      <trkpt lat="45.55786" lon="0.69917">
        <ele>260</ele>
        <time>2013-01-27T09:06:01Z</time>
      </trkpt>
      <trkpt lat="45.55781" lon="0.69911">
        <ele>263</ele>
        <time>2013-01-27T09:06:13Z</time>
      </trkpt>
      <trkpt lat="45.55779" lon="0.6991">
        <ele>263</ele>
        <time>2013-01-27T09:06:15Z</time>
      </trkpt>
      <trkpt lat="45.55768" lon="0.69914">
        <ele>261</ele>
        <time>2013-01-27T09:06:23Z</time>
      </trkpt>
      <trkpt lat="45.55762" lon="0.69921">
        <ele>258</ele>
        <time>2013-01-27T09:06:26Z</time>
      </trkpt>
      <trkpt lat="45.55758" lon="0.69929">
        <ele>258</ele>
        <time>2013-01-27T09:06:41Z</time>
      </trkpt>
      <trkpt lat="45.55759" lon="0.69932">
        <ele>258</ele>
        <time>2013-01-27T09:07:02Z</time>
      </trkpt>
      <trkpt lat="45.55762" lon="0.69926">
        <ele>258</ele>
        <time>2013-01-27T09:07:25Z</time>
      </trkpt>
      <trkpt lat="45.55767" lon="0.69947">
        <ele>258</ele>
        <time>2013-01-27T09:07:36Z</time>
      </trkpt>
      <trkpt lat="45.55756" lon="0.69983">
        <ele>255</ele>
        <time>2013-01-27T09:07:44Z</time>
      </trkpt>
      <trkpt lat="45.55741" lon="0.69999">
        <ele>252</ele>
        <time>2013-01-27T09:07:49Z</time>
      </trkpt>
      <trkpt lat="45.55734" lon="0.70008">
        <ele>251</ele>
        <time>2013-01-27T09:07:51Z</time>
      </trkpt>
      <trkpt lat="45.55722" lon="0.70026">
        <ele>250</ele>
        <time>2013-01-27T09:07:57Z</time>
      </trkpt>
      <trkpt lat="45.55706" lon="0.70029">
        <ele>250</ele>
        <time>2013-01-27T09:08:03Z</time>
      </trkpt>
      <trkpt lat="45.55683" lon="0.70026">
        <ele>251</ele>
        <time>2013-01-27T09:08:12Z</time>
      </trkpt>
      <trkpt lat="45.55675" lon="0.70033">
        <ele>251</ele>
        <time>2013-01-27T09:08:16Z</time>
      </trkpt>
      <trkpt lat="45.55666" lon="0.70051">
        <ele>254</ele>
        <time>2013-01-27T09:08:24Z</time>
      </trkpt>
      <trkpt lat="45.55653" lon="0.70056">
        <ele>254</ele>
        <time>2013-01-27T09:08:33Z</time>
      </trkpt>
      <trkpt lat="45.5564" lon="0.70041">
        <ele>255</ele>
        <time>2013-01-27T09:08:41Z</time>
      </trkpt>
      <trkpt lat="45.55634" lon="0.70031">
        <ele>256</ele>
        <time>2013-01-27T09:08:44Z</time>
      </trkpt>
      <trkpt lat="45.55631" lon="0.70028">
        <ele>256</ele>
        <time>2013-01-27T09:08:46Z</time>
      </trkpt>
      <trkpt lat="45.55608" lon="0.70006">
        <ele>258</ele>
        <time>2013-01-27T09:08:59Z</time>
      </trkpt>
      <trkpt lat="45.55583" lon="0.69985">
        <ele>263</ele>
        <time>2013-01-27T09:09:12Z</time>
      </trkpt>
      <trkpt lat="45.55575" lon="0.69984">
        <ele>263</ele>
        <time>2013-01-27T09:09:15Z</time>
      </trkpt>
      <trkpt lat="45.55551" lon="0.69977">
        <ele>264</ele>
        <time>2013-01-27T09:09:24Z</time>
      </trkpt>
      <trkpt lat="45.5553" lon="0.6996">
        <ele>265</ele>
        <time>2013-01-27T09:09:32Z</time>
      </trkpt>
      <trkpt lat="45.55532" lon="0.69939">
        <ele>265</ele>
        <time>2013-01-27T09:09:42Z</time>
      </trkpt>
      <trkpt lat="45.55543" lon="0.69913">
        <ele>261</ele>
        <time>2013-01-27T09:09:53Z</time>
      </trkpt>
      <trkpt lat="45.55542" lon="0.69911">
        <ele>262</ele>
        <time>2013-01-27T09:09:54Z</time>
      </trkpt>
      <trkpt lat="45.55524" lon="0.69888">
        <ele>263</ele>
        <time>2013-01-27T09:10:05Z</time>
      </trkpt>
      <trkpt lat="45.555" lon="0.69866">
        <ele>268</ele>
        <time>2013-01-27T09:10:17Z</time>
      </trkpt>
      <trkpt lat="45.55495" lon="0.69873">
        <ele>268</ele>
        <time>2013-01-27T09:10:24Z</time>
      </trkpt>
      <trkpt lat="45.55495" lon="0.69876">
        <ele>268</ele>
        <time>2013-01-27T09:10:26Z</time>
      </trkpt>
      <trkpt lat="45.55494" lon="0.699">
        <ele>269</ele>
        <time>2013-01-27T09:10:36Z</time>
      </trkpt>
      <trkpt lat="45.55492" lon="0.69911">
        <ele>268</ele>
        <time>2013-01-27T09:10:40Z</time>
      </trkpt>
      <trkpt lat="45.55486" lon="0.6993">
        <ele>271</ele>
        <time>2013-01-27T09:10:51Z</time>
      </trkpt>
      <trkpt lat="45.55487" lon="0.69949">
        <ele>272</ele>
        <time>2013-01-27T09:10:55Z</time>
      </trkpt>
      <trkpt lat="45.55488" lon="0.69954">
        <ele>272</ele>
        <time>2013-01-27T09:10:56Z</time>
      </trkpt>
      <trkpt lat="45.55502" lon="0.69961">
        <ele>267</ele>
        <time>2013-01-27T09:11:04Z</time>
      </trkpt>
      <trkpt lat="45.55505" lon="0.69964">
        <ele>267</ele>
        <time>2013-01-27T09:11:06Z</time>
      </trkpt>
      <trkpt lat="45.55507" lon="0.69968">
        <ele>267</ele>
        <time>2013-01-27T09:11:08Z</time>
      </trkpt>
      <trkpt lat="45.5551" lon="0.69973">
        <ele>267</ele>
        <time>2013-01-27T09:11:11Z</time>
      </trkpt>
      <trkpt lat="45.5551" lon="0.69987">
        <ele>268</ele>
        <time>2013-01-27T09:11:20Z</time>
      </trkpt>
      <trkpt lat="45.55505" lon="0.6999">
        <ele>269</ele>
        <time>2013-01-27T09:11:25Z</time>
      </trkpt>
      <trkpt lat="45.55501" lon="0.69997">
        <ele>271</ele>
        <time>2013-01-27T09:11:31Z</time>
      </trkpt>
      <trkpt lat="45.55492" lon="0.7001">
        <ele>273</ele>
        <time>2013-01-27T09:11:40Z</time>
      </trkpt>
      <trkpt lat="45.55487" lon="0.70013">
        <ele>273</ele>
        <time>2013-01-27T09:11:44Z</time>
      </trkpt>
      <trkpt lat="45.55484" lon="0.70013">
        <ele>273</ele>
        <time>2013-01-27T09:11:46Z</time>
      </trkpt>
      <trkpt lat="45.5548" lon="0.70013">
        <ele>273</ele>
        <time>2013-01-27T09:11:49Z</time>
      </trkpt>
      <trkpt lat="45.55472" lon="0.70009">
        <ele>273</ele>
        <time>2013-01-27T09:11:55Z</time>
      </trkpt>
      <trkpt lat="45.55466" lon="0.70018">
        <ele>273</ele>
        <time>2013-01-27T09:12:02Z</time>
      </trkpt>
      <trkpt lat="45.55458" lon="0.70023">
        <ele>274</ele>
        <time>2013-01-27T09:12:08Z</time>
      </trkpt>
      <trkpt lat="45.55458" lon="0.70033">
        <ele>274</ele>
        <time>2013-01-27T09:12:21Z</time>
      </trkpt>
      <trkpt lat="45.55459" lon="0.70036">
        <ele>274</ele>
        <time>2013-01-27T09:12:30Z</time>
      </trkpt>
      <trkpt lat="45.55474" lon="0.70049">
        <ele>273</ele>
        <time>2013-01-27T09:12:40Z</time>
      </trkpt>
      <trkpt lat="45.55469" lon="0.70088">
        <ele>270</ele>
        <time>2013-01-27T09:12:49Z</time>
      </trkpt>
      <trkpt lat="45.55468" lon="0.70103">
        <ele>269</ele>
        <time>2013-01-27T09:12:55Z</time>
      </trkpt>
      <trkpt lat="45.55467" lon="0.70106">
        <ele>269</ele>
        <time>2013-01-27T09:12:56Z</time>
      </trkpt>
      <trkpt lat="45.55458" lon="0.70118">
        <ele>269</ele>
        <time>2013-01-27T09:13:01Z</time>
      </trkpt>
      <trkpt lat="45.55454" lon="0.70121">
        <ele>269</ele>
        <time>2013-01-27T09:13:03Z</time>
      </trkpt>
      <trkpt lat="45.55443" lon="0.70129">
        <ele>269</ele>
        <time>2013-01-27T09:13:12Z</time>
      </trkpt>
      <trkpt lat="45.55443" lon="0.70139">
        <ele>269</ele>
        <time>2013-01-27T09:13:33Z</time>
      </trkpt>
      <trkpt lat="45.55442" lon="0.70139">
        <ele>269</ele>
        <time>2013-01-27T09:13:37Z</time>
      </trkpt>
      <trkpt lat="45.55437" lon="0.7015">
        <ele>268</ele>
        <time>2013-01-27T09:13:43Z</time>
      </trkpt>
      <trkpt lat="45.55436" lon="0.70157">
        <ele>268</ele>
        <time>2013-01-27T09:13:46Z</time>
      </trkpt>
      <trkpt lat="45.55439" lon="0.70173">
        <ele>263</ele>
        <time>2013-01-27T09:13:51Z</time>
      </trkpt>
      <trkpt lat="45.55445" lon="0.70187">
        <ele>262</ele>
        <time>2013-01-27T09:14:00Z</time>
      </trkpt>
      <trkpt lat="45.55444" lon="0.70198">
        <ele>261</ele>
        <time>2013-01-27T09:14:19Z</time>
      </trkpt>
      <trkpt lat="45.55446" lon="0.70199">
        <ele>261</ele>
        <time>2013-01-27T09:14:21Z</time>
      </trkpt>
      <trkpt lat="45.55453" lon="0.70204">
        <ele>260</ele>
        <time>2013-01-27T09:14:27Z</time>
      </trkpt>
      <trkpt lat="45.55457" lon="0.70207">
        <ele>260</ele>
        <time>2013-01-27T09:14:32Z</time>
      </trkpt>
      <trkpt lat="45.55458" lon="0.70211">
        <ele>260</ele>
        <time>2013-01-27T09:14:34Z</time>
      </trkpt>
      <trkpt lat="45.55461" lon="0.70219">
        <ele>259</ele>
        <time>2013-01-27T09:14:39Z</time>
      </trkpt>
      <trkpt lat="45.55466" lon="0.70232">
        <ele>258</ele>
        <time>2013-01-27T09:14:47Z</time>
      </trkpt>
      <trkpt lat="45.55466" lon="0.70234">
        <ele>258</ele>
        <time>2013-01-27T09:14:49Z</time>
      </trkpt>
      <trkpt lat="45.55466" lon="0.70246">
        <ele>257</ele>
        <time>2013-01-27T09:15:01Z</time>
      </trkpt>
      <trkpt lat="45.55464" lon="0.7025">
        <ele>257</ele>
        <time>2013-01-27T09:15:12Z</time>
      </trkpt>
      <trkpt lat="45.55468" lon="0.70258">
        <ele>251</ele>
        <time>2013-01-27T09:15:26Z</time>
      </trkpt>
      <trkpt lat="45.55472" lon="0.70263">
        <ele>250</ele>
        <time>2013-01-27T09:15:28Z</time>
      </trkpt>
      <trkpt lat="45.55475" lon="0.70271">
        <ele>250</ele>
        <time>2013-01-27T09:15:32Z</time>
      </trkpt>
      <trkpt lat="45.55476" lon="0.70285">
        <ele>249</ele>
        <time>2013-01-27T09:15:37Z</time>
      </trkpt>
      <trkpt lat="45.55478" lon="0.70292">
        <ele>249</ele>
        <time>2013-01-27T09:15:40Z</time>
      </trkpt>
      <trkpt lat="45.55481" lon="0.70294">
        <ele>248</ele>
        <time>2013-01-27T09:15:43Z</time>
      </trkpt>
      <trkpt lat="45.55487" lon="0.70299">
        <ele>248</ele>
        <time>2013-01-27T09:15:50Z</time>
      </trkpt>
      <trkpt lat="45.5551" lon="0.70295">
        <ele>243</ele>
        <time>2013-01-27T09:16:03Z</time>
      </trkpt>
      <trkpt lat="45.55513" lon="0.70292">
        <ele>243</ele>
        <time>2013-01-27T09:16:05Z</time>
      </trkpt>
      <trkpt lat="45.55539" lon="0.70276">
        <ele>243</ele>
        <time>2013-01-27T09:16:17Z</time>
      </trkpt>
      <trkpt lat="45.55565" lon="0.70265">
        <ele>243</ele>
        <time>2013-01-27T09:16:29Z</time>
      </trkpt>
      <trkpt lat="45.55598" lon="0.70245">
        <ele>244</ele>
        <time>2013-01-27T09:16:42Z</time>
      </trkpt>
      <trkpt lat="45.55625" lon="0.70204">
        <ele>245</ele>
        <time>2013-01-27T09:16:56Z</time>
      </trkpt>
      <trkpt lat="45.55631" lon="0.70168">
        <ele>246</ele>
        <time>2013-01-27T09:17:06Z</time>
      </trkpt>
      <trkpt lat="45.55635" lon="0.70134">
        <ele>250</ele>
        <time>2013-01-27T09:17:13Z</time>
      </trkpt>
      <trkpt lat="45.55636" lon="0.7013">
        <ele>251</ele>
        <time>2013-01-27T09:17:14Z</time>
      </trkpt>
      <trkpt lat="45.55635" lon="0.7012">
        <ele>251</ele>
        <time>2013-01-27T09:17:19Z</time>
      </trkpt>
      <trkpt lat="45.55635" lon="0.70108">
        <ele>251</ele>
        <time>2013-01-27T09:17:25Z</time>
      </trkpt>
      <trkpt lat="45.55634" lon="0.70097">
        <ele>252</ele>
        <time>2013-01-27T09:17:29Z</time>
      </trkpt>
      <trkpt lat="45.55634" lon="0.70092">
        <ele>252</ele>
        <time>2013-01-27T09:17:31Z</time>
      </trkpt>
      <trkpt lat="45.55633" lon="0.70081">
        <ele>255</ele>
        <time>2013-01-27T09:17:35Z</time>
      </trkpt>
      <trkpt lat="45.55633" lon="0.70078">
        <ele>255</ele>
        <time>2013-01-27T09:17:36Z</time>
      </trkpt>
      <trkpt lat="45.5563" lon="0.70058">
        <ele>255</ele>
        <time>2013-01-27T09:17:42Z</time>
      </trkpt>
      <trkpt lat="45.55617" lon="0.70033">
        <ele>257</ele>
        <time>2013-01-27T09:17:53Z</time>
      </trkpt>
      <trkpt lat="45.55597" lon="0.69998">
        <ele>260</ele>
        <time>2013-01-27T09:18:06Z</time>
      </trkpt>
      <trkpt lat="45.55588" lon="0.69989">
        <ele>260</ele>
        <time>2013-01-27T09:18:12Z</time>
      </trkpt>
      <trkpt lat="45.55578" lon="0.69986">
        <ele>263</ele>
        <time>2013-01-27T09:18:17Z</time>
      </trkpt>
      <trkpt lat="45.5556" lon="0.69982">
        <ele>264</ele>
        <time>2013-01-27T09:18:24Z</time>
      </trkpt>
      <trkpt lat="45.55531" lon="0.69963">
        <ele>265</ele>
        <time>2013-01-27T09:18:35Z</time>
      </trkpt>
      <trkpt lat="45.55529" lon="0.69949">
        <ele>265</ele>
        <time>2013-01-27T09:18:41Z</time>
      </trkpt>
      <trkpt lat="45.55534" lon="0.69943">
        <ele>265</ele>
        <time>2013-01-27T09:18:45Z</time>
      </trkpt>
      <trkpt lat="45.55538" lon="0.69938">
        <ele>264</ele>
        <time>2013-01-27T09:18:49Z</time>
      </trkpt>
      <trkpt lat="45.55545" lon="0.69922">
        <ele>263</ele>
        <time>2013-01-27T09:18:56Z</time>
      </trkpt>
      <trkpt lat="45.55543" lon="0.6991">
        <ele>262</ele>
        <time>2013-01-27T09:19:01Z</time>
      </trkpt>
      <trkpt lat="45.55522" lon="0.69889">
        <ele>263</ele>
        <time>2013-01-27T09:19:14Z</time>
      </trkpt>
      <trkpt lat="45.55492" lon="0.6987">
        <ele>268</ele>
        <time>2013-01-27T09:19:27Z</time>
      </trkpt>
      <trkpt lat="45.5546" lon="0.69858">
        <ele>269</ele>
        <time>2013-01-27T09:19:38Z</time>
      </trkpt>
      <trkpt lat="45.55431" lon="0.69849">
        <ele>270</ele>
        <time>2013-01-27T09:19:47Z</time>
      </trkpt>
      <trkpt lat="45.5542" lon="0.69849">
        <ele>270</ele>
        <time>2013-01-27T09:19:51Z</time>
      </trkpt>
      <trkpt lat="45.55406" lon="0.69853">
        <ele>273</ele>
        <time>2013-01-27T09:19:54Z</time>
      </trkpt>
      <trkpt lat="45.55394" lon="0.6984">
        <ele>274</ele>
        <time>2013-01-27T09:19:59Z</time>
      </trkpt>
      <trkpt lat="45.55394" lon="0.69801">
        <ele>273</ele>
        <time>2013-01-27T09:20:11Z</time>
      </trkpt>
      <trkpt lat="45.55391" lon="0.69797">
        <ele>273</ele>
        <time>2013-01-27T09:20:13Z</time>
      </trkpt>
      <trkpt lat="45.55369" lon="0.69759">
        <ele>274</ele>
        <time>2013-01-27T09:20:24Z</time>
      </trkpt>
      <trkpt lat="45.55349" lon="0.69737">
        <ele>275</ele>
        <time>2013-01-27T09:20:33Z</time>
      </trkpt>
      <trkpt lat="45.55328" lon="0.69708">
        <ele>275</ele>
        <time>2013-01-27T09:20:44Z</time>
      </trkpt>
      <trkpt lat="45.55324" lon="0.69701">
        <ele>275</ele>
        <time>2013-01-27T09:20:47Z</time>
      </trkpt>
      <trkpt lat="45.55326" lon="0.69695">
        <ele>275</ele>
        <time>2013-01-27T09:21:02Z</time>
      </trkpt>
      <trkpt lat="45.55327" lon="0.69693">
        <ele>275</ele>
        <time>2013-01-27T09:21:25Z</time>
      </trkpt>
      <trkpt lat="45.5533" lon="0.69693">
        <ele>275</ele>
        <time>2013-01-27T09:21:46Z</time>
      </trkpt>
      <trkpt lat="45.5533" lon="0.69693">
        <ele>275</ele>
        <time>2013-01-27T09:21:47Z</time>
      </trkpt>
      <trkpt lat="45.55333" lon="0.69687">
        <ele>275</ele>
        <time>2013-01-27T09:21:50Z</time>
      </trkpt>
      <trkpt lat="45.55335" lon="0.69685">
        <ele>274</ele>
        <time>2013-01-27T09:21:51Z</time>
      </trkpt>
      <trkpt lat="45.55336" lon="0.69683">
        <ele>274</ele>
        <time>2013-01-27T09:21:52Z</time>
      </trkpt>
      <trkpt lat="45.55338" lon="0.69681">
        <ele>274</ele>
        <time>2013-01-27T09:21:53Z</time>
      </trkpt>
      <trkpt lat="45.5534" lon="0.69678">
        <ele>274</ele>
        <time>2013-01-27T09:21:54Z</time>
      </trkpt>
      <trkpt lat="45.55342" lon="0.69675">
        <ele>274</ele>
        <time>2013-01-27T09:21:55Z</time>
      </trkpt>
      <trkpt lat="45.55344" lon="0.69673">
        <ele>274</ele>
        <time>2013-01-27T09:21:56Z</time>
      </trkpt>
      <trkpt lat="45.55347" lon="0.6967">
        <ele>274</ele>
        <time>2013-01-27T09:21:57Z</time>
      </trkpt>
      <trkpt lat="45.55381" lon="0.69643">
        <ele>273</ele>
        <time>2013-01-27T09:22:10Z</time>
      </trkpt>
      <trkpt lat="45.55405" lon="0.69625">
        <ele>273</ele>
        <time>2013-01-27T09:22:20Z</time>
      </trkpt>
      <trkpt lat="45.55424" lon="0.69609">
        <ele>274</ele>
        <time>2013-01-27T09:22:28Z</time>
      </trkpt>
      <trkpt lat="45.55464" lon="0.69576">
        <ele>275</ele>
        <time>2013-01-27T09:22:41Z</time>
      </trkpt>
      <trkpt lat="45.55472" lon="0.69573">
        <ele>275</ele>
        <time>2013-01-27T09:22:44Z</time>
      </trkpt>
      <trkpt lat="45.55474" lon="0.69575">
        <ele>275</ele>
        <time>2013-01-27T09:22:45Z</time>
      </trkpt>
      <trkpt lat="45.55477" lon="0.69577">
        <ele>275</ele>
        <time>2013-01-27T09:22:46Z</time>
      </trkpt>
      <trkpt lat="45.5549" lon="0.69588">
        <ele>274</ele>
        <time>2013-01-27T09:22:50Z</time>
      </trkpt>
      <trkpt lat="45.55509" lon="0.69619">
        <ele>274</ele>
        <time>2013-01-27T09:22:57Z</time>
      </trkpt>
      <trkpt lat="45.55534" lon="0.69673">
        <ele>269</ele>
        <time>2013-01-27T09:23:07Z</time>
      </trkpt>
      <trkpt lat="45.55545" lon="0.69702">
        <ele>269</ele>
        <time>2013-01-27T09:23:11Z</time>
      </trkpt>
      <trkpt lat="45.55557" lon="0.6973">
        <ele>267</ele>
        <time>2013-01-27T09:23:15Z</time>
      </trkpt>
      <trkpt lat="45.55576" lon="0.69737">
        <ele>266</ele>
        <time>2013-01-27T09:23:20Z</time>
      </trkpt>
      <trkpt lat="45.55585" lon="0.69728">
        <ele>268</ele>
        <time>2013-01-27T09:23:22Z</time>
      </trkpt>
      <trkpt lat="45.55606" lon="0.69731">
        <ele>268</ele>
        <time>2013-01-27T09:23:28Z</time>
      </trkpt>
      <trkpt lat="45.55606" lon="0.69736">
        <ele>268</ele>
        <time>2013-01-27T09:23:29Z</time>
      </trkpt>
      <trkpt lat="45.55607" lon="0.69762">
        <ele>264</ele>
        <time>2013-01-27T09:23:33Z</time>
      </trkpt>
      <trkpt lat="45.55621" lon="0.69807">
        <ele>262</ele>
        <time>2013-01-27T09:23:42Z</time>
      </trkpt>
      <trkpt lat="45.55623" lon="0.69812">
        <ele>262</ele>
        <time>2013-01-27T09:23:43Z</time>
      </trkpt>
      <trkpt lat="45.55627" lon="0.69822">
        <ele>262</ele>
        <time>2013-01-27T09:23:45Z</time>
      </trkpt>
      <trkpt lat="45.55639" lon="0.6984">
        <ele>259</ele>
        <time>2013-01-27T09:23:52Z</time>
      </trkpt>
      <trkpt lat="45.55647" lon="0.69845">
        <ele>260</ele>
        <time>2013-01-27T09:23:56Z</time>
      </trkpt>
      <trkpt lat="45.55679" lon="0.69854">
        <ele>262</ele>
        <time>2013-01-27T09:24:08Z</time>
      </trkpt>
      <trkpt lat="45.55703" lon="0.69866">
        <ele>261</ele>
        <time>2013-01-27T09:24:20Z</time>
      </trkpt>
      <trkpt lat="45.55717" lon="0.69869">
        <ele>261</ele>
        <time>2013-01-27T09:24:23Z</time>
      </trkpt>
      <trkpt lat="45.55729" lon="0.69871">
        <ele>261</ele>
        <time>2013-01-27T09:24:25Z</time>
      </trkpt>
      <trkpt lat="45.55741" lon="0.69878">
        <ele>261</ele>
        <time>2013-01-27T09:24:29Z</time>
      </trkpt>
      <trkpt lat="45.55744" lon="0.6988">
        <ele>261</ele>
        <time>2013-01-27T09:24:30Z</time>
      </trkpt>
      <trkpt lat="45.55755" lon="0.69888">
        <ele>263</ele>
        <time>2013-01-27T09:24:35Z</time>
      </trkpt>
      <trkpt lat="45.55783" lon="0.69895">
        <ele>264</ele>
        <time>2013-01-27T09:24:44Z</time>
      </trkpt>
      <trkpt lat="45.55789" lon="0.69897">
        <ele>264</ele>
        <time>2013-01-27T09:24:46Z</time>
      </trkpt>
      <trkpt lat="45.55807" lon="0.699">
        <ele>265</ele>
        <time>2013-01-27T09:24:52Z</time>
      </trkpt>
      <trkpt lat="45.55844" lon="0.69901">
        <ele>267</ele>
        <time>2013-01-27T09:25:04Z</time>
      </trkpt>
      <trkpt lat="45.55849" lon="0.69902">
        <ele>267</ele>
        <time>2013-01-27T09:25:16Z</time>
      </trkpt>
      <trkpt lat="45.55847" lon="0.69901">
        <ele>267</ele>
        <time>2013-01-27T09:25:25Z</time>
      </trkpt>
      <trkpt lat="45.55827" lon="0.69915">
        <ele>266</ele>
        <time>2013-01-27T09:25:36Z</time>
      </trkpt>
      <trkpt lat="45.55824" lon="0.69923">
        <ele>263</ele>
        <time>2013-01-27T09:25:39Z</time>
      </trkpt>
      <trkpt lat="45.55822" lon="0.69927">
        <ele>263</ele>
        <time>2013-01-27T09:25:41Z</time>
      </trkpt>
      <trkpt lat="45.55818" lon="0.69931">
        <ele>262</ele>
        <time>2013-01-27T09:25:43Z</time>
      </trkpt>
      <trkpt lat="45.55803" lon="0.69939">
        <ele>260</ele>
        <time>2013-01-27T09:25:52Z</time>
      </trkpt>
      <trkpt lat="45.55802" lon="0.69928">
        <ele>261</ele>
        <time>2013-01-27T09:26:01Z</time>
      </trkpt>
      <trkpt lat="45.55803" lon="0.69924">
        <ele>261</ele>
        <time>2013-01-27T09:26:05Z</time>
      </trkpt>
      <trkpt lat="45.55788" lon="0.69921">
        <ele>260</ele>
        <time>2013-01-27T09:26:14Z</time>
      </trkpt>
      <trkpt lat="45.55787" lon="0.69921">
        <ele>260</ele>
        <time>2013-01-27T09:26:15Z</time>
      </trkpt>
      <trkpt lat="45.55783" lon="0.69918">
        <ele>259</ele>
        <time>2013-01-27T09:26:20Z</time>
      </trkpt>
      <trkpt lat="45.55779" lon="0.69911">
        <ele>263</ele>
        <time>2013-01-27T09:26:25Z</time>
      </trkpt>
      <trkpt lat="45.55765" lon="0.69919">
        <ele>258</ele>
        <time>2013-01-27T09:26:33Z</time>
      </trkpt>
      <trkpt lat="45.55762" lon="0.69926">
        <ele>258</ele>
        <time>2013-01-27T09:26:36Z</time>
      </trkpt>
      <trkpt lat="45.55767" lon="0.69944">
        <ele>258</ele>
        <time>2013-01-27T09:26:49Z</time>
      </trkpt>
      <trkpt lat="45.5578" lon="0.69963">
        <ele>258</ele>
        <time>2013-01-27T09:26:59Z</time>
      </trkpt>
      <trkpt lat="45.55791" lon="0.69972">
        <ele>259</ele>
        <time>2013-01-27T09:27:06Z</time>
      </trkpt>
      <trkpt lat="45.55802" lon="0.69977">
        <ele>259</ele>
        <time>2013-01-27T09:27:12Z</time>
      </trkpt>
      <trkpt lat="45.55829" lon="0.69975">
        <ele>261</ele>
        <time>2013-01-27T09:27:22Z</time>
      </trkpt>
      <trkpt lat="45.55849" lon="0.69985">
        <ele>263</ele>
        <time>2013-01-27T09:27:31Z</time>
      </trkpt>
      <trkpt lat="45.55868" lon="0.70013">
        <ele>262</ele>
        <time>2013-01-27T09:27:41Z</time>
      </trkpt>
      <trkpt lat="45.55905" lon="0.70018">
        <ele>263</ele>
        <time>2013-01-27T09:27:53Z</time>
      </trkpt>
      <trkpt lat="45.55941" lon="0.70018">
        <ele>265</ele>
        <time>2013-01-27T09:28:05Z</time>
      </trkpt>
      <trkpt lat="45.55894" lon="0.69889">
        <ele>268</ele>
      </trkpt>
      <trkpt lat="45.55716" lon="0.69283">
        <ele>280</ele>
      </trkpt>
      <trkpt lat="45.55496" lon="0.69024">
        <ele>269</ele>
      </trkpt>
    </trkseg>
  </trk>
  <trk>
    <name><![CDATA[Tracé]]></name>
    <trkseg>
      <trkpt lat="45.55805" lon="0.67182">
        <ele>279</ele>
        <time>2011-12-27T14:33:51Z</time>
      </trkpt>
      <trkpt lat="45.55796" lon="0.67173">
        <ele>279</ele>
        <time>2011-12-27T14:33:46Z</time>
      </trkpt>
      <trkpt lat="45.55796" lon="0.67166">
        <ele>282</ele>
        <time>2011-12-27T14:33:43Z</time>
      </trkpt>
      <trkpt lat="45.55821" lon="0.67067">
        <ele>287</ele>
        <time>2011-12-27T14:33:31Z</time>
      </trkpt>
      <trkpt lat="45.55825" lon="0.67039">
        <ele>288</ele>
        <time>2011-12-27T14:33:28Z</time>
      </trkpt>
      <trkpt lat="45.5583" lon="0.6702">
        <ele>289</ele>
        <time>2011-12-27T14:33:26Z</time>
      </trkpt>
      <trkpt lat="45.55843" lon="0.66985">
        <ele>288</ele>
        <time>2011-12-27T14:33:22Z</time>
      </trkpt>
      <trkpt lat="45.55851" lon="0.66972">
        <ele>287</ele>
        <time>2011-12-27T14:33:20Z</time>
      </trkpt>
      <trkpt lat="45.55848" lon="0.66947">
        <ele>287</ele>
        <time>2011-12-27T14:33:16Z</time>
      </trkpt>
      <trkpt lat="45.55835" lon="0.66941">
        <ele>288</ele>
        <time>2011-12-27T14:33:12Z</time>
      </trkpt>
      <trkpt lat="45.55807" lon="0.66895">
        <ele>293</ele>
        <time>2011-12-27T14:32:56Z</time>
      </trkpt>
      <trkpt lat="45.55795" lon="0.66889">
        <ele>293</ele>
        <time>2011-12-27T14:32:51Z</time>
      </trkpt>
      <trkpt lat="45.55759" lon="0.66907">
        <ele>293</ele>
        <time>2011-12-27T14:32:41Z</time>
      </trkpt>
      <trkpt lat="45.55724" lon="0.66931">
        <ele>294</ele>
        <time>2011-12-27T14:32:29Z</time>
      </trkpt>
      <trkpt lat="45.55697" lon="0.66905">
        <ele>293</ele>
        <time>2011-12-27T14:32:18Z</time>
      </trkpt>
      <trkpt lat="45.5563" lon="0.66842">
        <ele>293</ele>
        <time>2011-12-27T14:31:59Z</time>
      </trkpt>
      <trkpt lat="45.55596" lon="0.66812">
        <ele>292</ele>
        <time>2011-12-27T14:31:48Z</time>
      </trkpt>
      <trkpt lat="45.55547" lon="0.66744">
        <ele>292</ele>
        <time>2011-12-27T14:31:34Z</time>
      </trkpt>
      <trkpt lat="45.55522" lon="0.6673">
        <ele>292</ele>
        <time>2011-12-27T14:31:29Z</time>
      </trkpt>
      <trkpt lat="45.55486" lon="0.66731">
        <ele>292</ele>
        <time>2011-12-27T14:31:19Z</time>
      </trkpt>
      <trkpt lat="45.55473" lon="0.66726">
        <ele>292</ele>
        <time>2011-12-27T14:31:15Z</time>
      </trkpt>
      <trkpt lat="45.5544" lon="0.66714">
        <ele>292</ele>
        <time>2011-12-27T14:31:05Z</time>
      </trkpt>
      <trkpt lat="45.55429" lon="0.66715">
        <ele>292</ele>
        <time>2011-12-27T14:31:03Z</time>
      </trkpt>
      <trkpt lat="45.55337" lon="0.66717">
        <ele>291</ele>
        <time>2011-12-27T14:30:47Z</time>
      </trkpt>
      <trkpt lat="45.55196" lon="0.66704">
        <ele>288</ele>
        <time>2011-12-27T14:30:24Z</time>
      </trkpt>
      <trkpt lat="45.55109" lon="0.66684">
        <ele>290</ele>
        <time>2011-12-27T14:30:08Z</time>
      </trkpt>
      <trkpt lat="45.55097" lon="0.66681">
        <ele>291</ele>
        <time>2011-12-27T14:30:05Z</time>
      </trkpt>
      <trkpt lat="45.55085" lon="0.66677">
        <ele>291</ele>
        <time>2011-12-27T14:30:02Z</time>
      </trkpt>
      <trkpt lat="45.55077" lon="0.66656">
        <ele>291</ele>
        <time>2011-12-27T14:29:55Z</time>
      </trkpt>
      <trkpt lat="45.55075" lon="0.66664">
        <ele>291</ele>
        <time>2011-12-27T14:29:46Z</time>
      </trkpt>
      <trkpt lat="45.55071" lon="0.6667">
        <ele>292</ele>
        <time>2011-12-27T14:29:42Z</time>
      </trkpt>
      <trkpt lat="45.55039" lon="0.66665">
        <ele>291</ele>
        <time>2011-12-27T14:29:29Z</time>
      </trkpt>
      <trkpt lat="45.54966" lon="0.66651">
        <ele>291</ele>
        <time>2011-12-27T14:29:12Z</time>
      </trkpt>
      <trkpt lat="45.54901" lon="0.66645">
        <ele>292</ele>
        <time>2011-12-27T14:28:55Z</time>
      </trkpt>
      <trkpt lat="45.54888" lon="0.66645">
        <ele>291</ele>
        <time>2011-12-27T14:28:52Z</time>
      </trkpt>
      <trkpt lat="45.54866" lon="0.66648">
        <ele>291</ele>
        <time>2011-12-27T14:28:47Z</time>
      </trkpt>
      <trkpt lat="45.54779" lon="0.6666">
        <ele>290</ele>
        <time>2011-12-27T14:28:33Z</time>
      </trkpt>
      <trkpt lat="45.54671" lon="0.66671">
        <ele>287</ele>
        <time>2011-12-27T14:28:19Z</time>
      </trkpt>
      <trkpt lat="45.54639" lon="0.66662">
        <ele>286</ele>
        <time>2011-12-27T14:28:15Z</time>
      </trkpt>
      <trkpt lat="45.54554" lon="0.66622">
        <ele>286</ele>
        <time>2011-12-27T14:28:02Z</time>
      </trkpt>
      <trkpt lat="45.54535" lon="0.66605">
        <ele>286</ele>
        <time>2011-12-27T14:27:54Z</time>
      </trkpt>
      <trkpt lat="45.54533" lon="0.66615">
        <ele>286</ele>
        <time>2011-12-27T14:27:50Z</time>
      </trkpt>
      <trkpt lat="45.54533" lon="0.66621">
        <ele>286</ele>
        <time>2011-12-27T14:27:47Z</time>
      </trkpt>
      <trkpt lat="45.54539" lon="0.66669">
        <ele>285</ele>
      </trkpt>
      <trkpt lat="45.5457" lon="0.66727">
        <ele>285</ele>
      </trkpt>
      <trkpt lat="45.54581" lon="0.66774">
        <ele>284</ele>
      </trkpt>
      <trkpt lat="45.54647" lon="0.6686">
        <ele>288</ele>
      </trkpt>
      <trkpt lat="45.54656" lon="0.66914">
        <ele>289</ele>
      </trkpt>
      <trkpt lat="45.54666" lon="0.66989">
        <ele>287</ele>
      </trkpt>
      <trkpt lat="45.5466" lon="0.67055">
        <ele>282</ele>
      </trkpt>
      <trkpt lat="45.54687" lon="0.67173">
        <ele>275</ele>
      </trkpt>
      <trkpt lat="45.54653" lon="0.67171">
        <ele>273</ele>
      </trkpt>
      <trkpt lat="45.54587" lon="0.67302">
        <ele>267</ele>
      </trkpt>
      <trkpt lat="45.54545" lon="0.67307">
        <ele>267</ele>
      </trkpt>
      <trkpt lat="45.54488" lon="0.67289">
        <ele>265</ele>
      </trkpt>
      <trkpt lat="45.54445" lon="0.67298">
        <ele>265</ele>
      </trkpt>
      <trkpt lat="45.54426" lon="0.67332">
        <ele>265</ele>
      </trkpt>
      <trkpt lat="45.54369" lon="0.67352">
        <ele>262</ele>
      </trkpt>
      <trkpt lat="45.54334" lon="0.67412">
        <ele>259</ele>
      </trkpt>
      <trkpt lat="45.54339" lon="0.67532">
        <ele>248</ele>
      </trkpt>
      <trkpt lat="45.54367" lon="0.67613">
        <ele>243</ele>
      </trkpt>
      <trkpt lat="45.54366" lon="0.67749">
        <ele>240</ele>
      </trkpt>
      <trkpt lat="45.54348" lon="0.6783">
        <ele>239</ele>
      </trkpt>
      <trkpt lat="45.54292" lon="0.67781">
        <ele>240</ele>
      </trkpt>
      <trkpt lat="45.54292" lon="0.67781">
        <ele>240</ele>
      </trkpt>
      <trkpt lat="45.54186" lon="0.67728">
        <ele>240</ele>
      </trkpt>
      <trkpt lat="45.53995" lon="0.67627">
        <ele>229</ele>
      </trkpt>
      <trkpt lat="45.53928" lon="0.67597">
        <ele>228</ele>
      </trkpt>
      <trkpt lat="45.53881" lon="0.67503">
        <ele>239</ele>
      </trkpt>
      <trkpt lat="45.53855" lon="0.67426">
        <ele>247</ele>
      </trkpt>
      <trkpt lat="45.53854" lon="0.67361">
        <ele>250</ele>
      </trkpt>
      <trkpt lat="45.53866" lon="0.67299">
        <ele>252</ele>
      </trkpt>
      <trkpt lat="45.53867" lon="0.67278">
        <ele>252</ele>
      </trkpt>
      <trkpt lat="45.53833" lon="0.6725">
        <ele>258</ele>
      </trkpt>
      <trkpt lat="45.53773" lon="0.67222">
        <ele>258</ele>
      </trkpt>
      <trkpt lat="45.53714" lon="0.67153">
        <ele>263</ele>
      </trkpt>
      <trkpt lat="45.5368" lon="0.67117">
        <ele>265</ele>
      </trkpt>
      <trkpt lat="45.53595" lon="0.67054">
        <ele>271</ele>
      </trkpt>
      <trkpt lat="45.53513" lon="0.66954">
        <ele>272</ele>
      </trkpt>
      <trkpt lat="45.53513" lon="0.66954">
        <ele>272</ele>
      </trkpt>
      <trkpt lat="45.53385" lon="0.66836">
        <ele>263</ele>
      </trkpt>
      <trkpt lat="45.53284" lon="0.66683">
        <ele>249</ele>
      </trkpt>
      <trkpt lat="45.5323" lon="0.66589">
        <ele>240</ele>
      </trkpt>
      <trkpt lat="45.53212" lon="0.66514">
        <ele>238</ele>
      </trkpt>
      <trkpt lat="45.5319" lon="0.66469">
        <ele>237</ele>
      </trkpt>
      <trkpt lat="45.53157" lon="0.66445">
        <ele>232</ele>
      </trkpt>
      <trkpt lat="45.53139" lon="0.66428">
        <ele>231</ele>
      </trkpt>
      <trkpt lat="45.5312" lon="0.66411">
        <ele>229</ele>
      </trkpt>
      <trkpt lat="45.53112" lon="0.66408">
        <ele>229</ele>
      </trkpt>
      <trkpt lat="45.5309" lon="0.66387">
        <ele>228</ele>
      </trkpt>
      <trkpt lat="45.53067" lon="0.66369">
        <ele>226</ele>
      </trkpt>
      <trkpt lat="45.53046" lon="0.66367">
        <ele>226</ele>
      </trkpt>
      <trkpt lat="45.52974" lon="0.66303">
        <ele>220</ele>
      </trkpt>
      <trkpt lat="45.52931" lon="0.66252">
        <ele>219</ele>
      </trkpt>
      <trkpt lat="45.52944" lon="0.66219">
        <ele>215</ele>
      </trkpt>
      <trkpt lat="45.52901" lon="0.6619">
        <ele>212</ele>
      </trkpt>
      <trkpt lat="45.5291" lon="0.66145">
        <ele>210</ele>
      </trkpt>
      <trkpt lat="45.52935" lon="0.66116">
        <ele>209</ele>
      </trkpt>
      <trkpt lat="45.52841" lon="0.6605">
        <ele>205</ele>
      </trkpt>
      <trkpt lat="45.52775" lon="0.66022">
        <ele>201</ele>
      </trkpt>
      <trkpt lat="45.52728" lon="0.66003">
        <ele>197</ele>
      </trkpt>
      <trkpt lat="45.52728" lon="0.66005">
        <ele>197</ele>
      </trkpt>
      <trkpt lat="45.52728" lon="0.66005">
        <ele>197</ele>
      </trkpt>
      <trkpt lat="45.52686" lon="0.66005">
        <ele>193</ele>
      </trkpt>
      <trkpt lat="45.52636" lon="0.65997">
        <ele>190</ele>
      </trkpt>
      <trkpt lat="45.52647" lon="0.66037">
        <ele>189</ele>
      </trkpt>
      <trkpt lat="45.52641" lon="0.66076">
        <ele>188</ele>
      </trkpt>
      <trkpt lat="45.52575" lon="0.66082">
        <ele>185</ele>
      </trkpt>
      <trkpt lat="45.52546" lon="0.66027">
        <ele>182</ele>
      </trkpt>
      <trkpt lat="45.52513" lon="0.66069">
        <ele>178</ele>
      </trkpt>
      <trkpt lat="45.52501" lon="0.66106">
        <ele>173</ele>
      </trkpt>
      <trkpt lat="45.52474" lon="0.66095">
        <ele>170</ele>
      </trkpt>
      <trkpt lat="45.52461" lon="0.66084">
        <ele>169</ele>
      </trkpt>
      <trkpt lat="45.52476" lon="0.66138">
        <ele>166</ele>
      </trkpt>
      <trkpt lat="45.52594" lon="0.66138">
        <ele>175</ele>
      </trkpt>
      <trkpt lat="45.52674" lon="0.66177">
        <ele>170</ele>
      </trkpt>
      <trkpt lat="45.52706" lon="0.66256">
        <ele>167</ele>
      </trkpt>
      <trkpt lat="45.52695" lon="0.66338">
        <ele>168</ele>
      </trkpt>
      <trkpt lat="45.52688" lon="0.664">
        <ele>168</ele>
      </trkpt>
      <trkpt lat="45.52642" lon="0.66513">
        <ele>171</ele>
      </trkpt>
      <trkpt lat="45.52634" lon="0.66659">
        <ele>168</ele>
      </trkpt>
      <trkpt lat="45.52666" lon="0.66794">
        <ele>165</ele>
      </trkpt>
      <trkpt lat="45.52644" lon="0.66995">
        <ele>168</ele>
      </trkpt>
      <trkpt lat="45.5265" lon="0.67102">
        <ele>169</ele>
      </trkpt>
      <trkpt lat="45.52651" lon="0.67179">
        <ele>170</ele>
      </trkpt>
      <trkpt lat="45.52671" lon="0.67258">
        <ele>171</ele>
      </trkpt>
      <trkpt lat="45.52727" lon="0.67423">
        <ele>172</ele>
      </trkpt>
      <trkpt lat="45.52719" lon="0.67544">
        <ele>171</ele>
      </trkpt>
      <trkpt lat="45.52719" lon="0.67687">
        <ele>171</ele>
      </trkpt>
      <trkpt lat="45.52719" lon="0.67687">
        <ele>171</ele>
      </trkpt>
      <trkpt lat="45.52784" lon="0.67758">
        <ele>171</ele>
      </trkpt>
      <trkpt lat="45.52866" lon="0.67782">
        <ele>176</ele>
      </trkpt>
      <trkpt lat="45.52955" lon="0.67814">
        <ele>178</ele>
      </trkpt>
      <trkpt lat="45.52981" lon="0.67865">
        <ele>172</ele>
      </trkpt>
      <trkpt lat="45.52969" lon="0.67938">
        <ele>174</ele>
      </trkpt>
      <trkpt lat="45.52867" lon="0.6802">
        <ele>181</ele>
      </trkpt>
      <trkpt lat="45.52813" lon="0.68035">
        <ele>180</ele>
      </trkpt>
      <trkpt lat="45.52768" lon="0.67975">
        <ele>177</ele>
      </trkpt>
      <trkpt lat="45.52725" lon="0.67969">
        <ele>179</ele>
      </trkpt>
      <trkpt lat="45.52678" lon="0.68168">
        <ele>179</ele>
      </trkpt>
      <trkpt lat="45.52685" lon="0.68219">
        <ele>180</ele>
      </trkpt>
      <trkpt lat="45.52826" lon="0.68289">
        <ele>183</ele>
      </trkpt>
      <trkpt lat="45.52848" lon="0.68339">
        <ele>184</ele>
      </trkpt>
      <trkpt lat="45.52945" lon="0.68345">
        <ele>175</ele>
      </trkpt>
      <trkpt lat="45.52957" lon="0.68396">
        <ele>175</ele>
      </trkpt>
      <trkpt lat="45.52896" lon="0.68511">
        <ele>183</ele>
      </trkpt>
      <trkpt lat="45.52894" lon="0.6861">
        <ele>187</ele>
      </trkpt>
      <trkpt lat="45.52926" lon="0.68669">
        <ele>189</ele>
      </trkpt>
      <trkpt lat="45.52977" lon="0.68706">
        <ele>185</ele>
      </trkpt>
      <trkpt lat="45.5296" lon="0.68665">
        <ele>179</ele>
      </trkpt>
      <trkpt lat="45.52962" lon="0.6863">
        <ele>178</ele>
      </trkpt>
      <trkpt lat="45.53031" lon="0.68497">
        <ele>179</ele>
      </trkpt>
      <trkpt lat="45.53135" lon="0.68417">
        <ele>196</ele>
      </trkpt>
      <trkpt lat="45.53171" lon="0.68421">
        <ele>204</ele>
      </trkpt>
      <trkpt lat="45.53197" lon="0.68417">
        <ele>207</ele>
      </trkpt>
      <trkpt lat="45.53234" lon="0.68209">
        <ele>215</ele>
      </trkpt>
      <trkpt lat="45.53396" lon="0.68178">
        <ele>212</ele>
      </trkpt>
      <trkpt lat="45.53418" lon="0.68157">
        <ele>207</ele>
      </trkpt>
      <trkpt lat="45.53442" lon="0.68127">
        <ele>206</ele>
      </trkpt>
      <trkpt lat="45.53436" lon="0.68097">
        <ele>206</ele>
      </trkpt>
      <trkpt lat="45.53456" lon="0.68067">
        <ele>209</ele>
      </trkpt>
      <trkpt lat="45.53456" lon="0.68067">
        <ele>209</ele>
      </trkpt>
      <trkpt lat="45.53501" lon="0.68091">
        <ele>204</ele>
      </trkpt>
      <trkpt lat="45.53648" lon="0.67975">
        <ele>210</ele>
      </trkpt>
      <trkpt lat="45.53677" lon="0.68031">
        <ele>206</ele>
      </trkpt>
      <trkpt lat="45.53732" lon="0.68041">
        <ele>207</ele>
      </trkpt>
      <trkpt lat="45.53777" lon="0.68039">
        <ele>212</ele>
      </trkpt>
      <trkpt lat="45.53849" lon="0.68041">
        <ele>220</ele>
      </trkpt>
      <trkpt lat="45.5389" lon="0.68041">
        <ele>221</ele>
      </trkpt>
      <trkpt lat="45.53962" lon="0.6805">
        <ele>227</ele>
      </trkpt>
      <trkpt lat="45.5401" lon="0.68048">
        <ele>229</ele>
      </trkpt>
      <trkpt lat="45.54015" lon="0.6811">
        <ele>227</ele>
      </trkpt>
      <trkpt lat="45.53951" lon="0.68216">
        <ele>222</ele>
      </trkpt>
      <trkpt lat="45.53918" lon="0.68332">
        <ele>219</ele>
      </trkpt>
      <trkpt lat="45.53915" lon="0.6841">
        <ele>222</ele>
      </trkpt>
      <trkpt lat="45.53908" lon="0.68465">
        <ele>224</ele>
      </trkpt>
      <trkpt lat="45.53915" lon="0.6856">
        <ele>225</ele>
      </trkpt>
      <trkpt lat="45.53967" lon="0.68609">
        <ele>227</ele>
      </trkpt>
      <trkpt lat="45.53994" lon="0.68574">
        <ele>227</ele>
      </trkpt>
      <trkpt lat="45.53976" lon="0.68527">
        <ele>226</ele>
      </trkpt>
      <trkpt lat="45.53972" lon="0.68457">
        <ele>224</ele>
      </trkpt>
      <trkpt lat="45.54009" lon="0.68334">
        <ele>220</ele>
      </trkpt>
      <trkpt lat="45.54081" lon="0.68282">
        <ele>218</ele>
      </trkpt>
      <trkpt lat="45.54108" lon="0.68305">
        <ele>221</ele>
      </trkpt>
      <trkpt lat="45.54157" lon="0.68292">
        <ele>223</ele>
      </trkpt>
      <trkpt lat="45.54135" lon="0.68214">
        <ele>221</ele>
      </trkpt>
      <trkpt lat="45.54159" lon="0.68173">
        <ele>222</ele>
      </trkpt>
      <trkpt lat="45.54319" lon="0.6813">
        <ele>226</ele>
      </trkpt>
      <trkpt lat="45.5432" lon="0.68066">
        <ele>223</ele>
      </trkpt>
      <trkpt lat="45.54329" lon="0.68061">
        <ele>223</ele>
      </trkpt>
      <trkpt lat="45.54389" lon="0.68061">
        <ele>227</ele>
      </trkpt>
      <trkpt lat="45.5441" lon="0.68022">
        <ele>228</ele>
      </trkpt>
      <trkpt lat="45.54449" lon="0.68016">
        <ele>229</ele>
      </trkpt>
      <trkpt lat="45.54499" lon="0.67942">
        <ele>229</ele>
        <time>2013-01-27T08:52:40Z</time>
      </trkpt>
      <trkpt lat="45.54504" lon="0.67946">
        <ele>228</ele>
        <time>2013-01-27T08:52:42Z</time>
      </trkpt>
      <trkpt lat="45.54506" lon="0.67947">
        <ele>229</ele>
        <time>2013-01-27T08:52:43Z</time>
      </trkpt>
      <trkpt lat="45.54508" lon="0.67947">
        <ele>229</ele>
        <time>2013-01-27T08:52:44Z</time>
      </trkpt>
      <trkpt lat="45.5451" lon="0.67947">
        <ele>229</ele>
        <time>2013-01-27T08:52:45Z</time>
      </trkpt>
      <trkpt lat="45.54513" lon="0.67947">
        <ele>229</ele>
        <time>2013-01-27T08:52:46Z</time>
      </trkpt>
      <trkpt lat="45.54515" lon="0.67947">
        <ele>229</ele>
        <time>2013-01-27T08:52:47Z</time>
      </trkpt>
      <trkpt lat="45.54545" lon="0.6796">
        <ele>229</ele>
        <time>2013-01-27T08:52:59Z</time>
      </trkpt>
      <trkpt lat="45.54573" lon="0.67979">
        <ele>230</ele>
        <time>2013-01-27T08:53:07Z</time>
      </trkpt>
      <trkpt lat="45.54586" lon="0.67996">
        <ele>232</ele>
        <time>2013-01-27T08:53:12Z</time>
      </trkpt>
      <trkpt lat="45.54597" lon="0.68013">
        <ele>234</ele>
        <time>2013-01-27T08:53:17Z</time>
      </trkpt>
      <trkpt lat="45.54607" lon="0.68031">
        <ele>235</ele>
        <time>2013-01-27T08:53:23Z</time>
      </trkpt>
      <trkpt lat="45.5463" lon="0.68067">
        <ele>236</ele>
        <time>2013-01-27T08:53:36Z</time>
      </trkpt>
      <trkpt lat="45.54645" lon="0.68114">
        <ele>237</ele>
        <time>2013-01-27T08:53:48Z</time>
      </trkpt>
      <trkpt lat="45.54647" lon="0.68146">
        <ele>237</ele>
        <time>2013-01-27T08:53:54Z</time>
      </trkpt>
      <trkpt lat="45.54653" lon="0.68186">
        <ele>236</ele>
        <time>2013-01-27T08:54:01Z</time>
      </trkpt>
      <trkpt lat="45.54705" lon="0.68216">
        <ele>236</ele>
        <time>2013-01-27T08:54:16Z</time>
      </trkpt>
      <trkpt lat="45.54755" lon="0.68239">
        <ele>238</ele>
        <time>2013-01-27T08:54:33Z</time>
      </trkpt>
      <trkpt lat="45.5479" lon="0.68254">
        <ele>241</ele>
        <time>2013-01-27T08:54:44Z</time>
      </trkpt>
      <trkpt lat="45.54823" lon="0.68267">
        <ele>244</ele>
        <time>2013-01-27T08:54:54Z</time>
      </trkpt>
      <trkpt lat="45.54861" lon="0.68281">
        <ele>248</ele>
        <time>2013-01-27T08:55:08Z</time>
      </trkpt>
      <trkpt lat="45.54901" lon="0.68298">
        <ele>248</ele>
        <time>2013-01-27T08:55:22Z</time>
      </trkpt>
      <trkpt lat="45.54919" lon="0.68302">
        <ele>249</ele>
        <time>2013-01-27T08:55:29Z</time>
      </trkpt>
      <trkpt lat="45.54927" lon="0.68285">
        <ele>250</ele>
        <time>2013-01-27T08:55:35Z</time>
      </trkpt>
      <trkpt lat="45.54938" lon="0.68232">
        <ele>250</ele>
        <time>2013-01-27T08:55:50Z</time>
      </trkpt>
      <trkpt lat="45.54944" lon="0.68216">
        <ele>250</ele>
        <time>2013-01-27T08:55:55Z</time>
      </trkpt>
      <trkpt lat="45.54946" lon="0.68215">
        <ele>250</ele>
        <time>2013-01-27T08:55:56Z</time>
      </trkpt>
      <trkpt lat="45.54949" lon="0.68215">
        <ele>250</ele>
        <time>2013-01-27T08:55:57Z</time>
      </trkpt>
      <trkpt lat="45.54952" lon="0.68217">
        <ele>250</ele>
        <time>2013-01-27T08:55:58Z</time>
      </trkpt>
      <trkpt lat="45.54954" lon="0.68218">
        <ele>250</ele>
        <time>2013-01-27T08:55:59Z</time>
      </trkpt>
      <trkpt lat="45.54957" lon="0.68219">
        <ele>250</ele>
        <time>2013-01-27T08:56:00Z</time>
      </trkpt>
      <trkpt lat="45.54992" lon="0.68243">
        <ele>252</ele>
        <time>2013-01-27T08:56:14Z</time>
      </trkpt>
      <trkpt lat="45.55028" lon="0.6827">
        <ele>251</ele>
        <time>2013-01-27T08:56:27Z</time>
      </trkpt>
      <trkpt lat="45.5507" lon="0.683">
        <ele>250</ele>
        <time>2013-01-27T08:56:40Z</time>
      </trkpt>
      <trkpt lat="45.55107" lon="0.68328">
        <ele>251</ele>
        <time>2013-01-27T08:56:53Z</time>
      </trkpt>
      <trkpt lat="45.5511" lon="0.68333">
        <ele>252</ele>
        <time>2013-01-27T08:56:55Z</time>
      </trkpt>
      <trkpt lat="45.55111" lon="0.68337">
        <ele>252</ele>
        <time>2013-01-27T08:56:56Z</time>
      </trkpt>
      <trkpt lat="45.5511" lon="0.6834">
        <ele>252</ele>
        <time>2013-01-27T08:56:57Z</time>
      </trkpt>
      <trkpt lat="45.55109" lon="0.68342">
        <ele>252</ele>
        <time>2013-01-27T08:56:58Z</time>
      </trkpt>
      <trkpt lat="45.55107" lon="0.68346">
        <ele>252</ele>
        <time>2013-01-27T08:56:59Z</time>
      </trkpt>
      <trkpt lat="45.55074" lon="0.68392">
        <ele>249</ele>
        <time>2013-01-27T08:57:13Z</time>
      </trkpt>
      <trkpt lat="45.5503" lon="0.68439">
        <ele>247</ele>
        <time>2013-01-27T08:57:28Z</time>
      </trkpt>
      <trkpt lat="45.5498" lon="0.68471">
        <ele>246</ele>
        <time>2013-01-27T08:57:44Z</time>
      </trkpt>
      <trkpt lat="45.54969" lon="0.68477">
        <ele>246</ele>
        <time>2013-01-27T08:57:48Z</time>
      </trkpt>
      <trkpt lat="45.54968" lon="0.6848">
        <ele>246</ele>
        <time>2013-01-27T08:57:49Z</time>
      </trkpt>
      <trkpt lat="45.54967" lon="0.68484">
        <ele>246</ele>
        <time>2013-01-27T08:57:50Z</time>
      </trkpt>
      <trkpt lat="45.54968" lon="0.68488">
        <ele>246</ele>
        <time>2013-01-27T08:57:51Z</time>
      </trkpt>
      <trkpt lat="45.54969" lon="0.68491">
        <ele>246</ele>
        <time>2013-01-27T08:57:52Z</time>
      </trkpt>
      <trkpt lat="45.54971" lon="0.68494">
        <ele>246</ele>
        <time>2013-01-27T08:57:53Z</time>
      </trkpt>
      <trkpt lat="45.54973" lon="0.68496">
        <ele>246</ele>
        <time>2013-01-27T08:57:54Z</time>
      </trkpt>
      <trkpt lat="45.54975" lon="0.68498">
        <ele>246</ele>
        <time>2013-01-27T08:57:55Z</time>
      </trkpt>
      <trkpt lat="45.54976" lon="0.68501">
        <ele>246</ele>
        <time>2013-01-27T08:57:56Z</time>
      </trkpt>
      <trkpt lat="45.54978" lon="0.68504">
        <ele>246</ele>
        <time>2013-01-27T08:57:57Z</time>
      </trkpt>
      <trkpt lat="45.54979" lon="0.68508">
        <ele>246</ele>
        <time>2013-01-27T08:57:58Z</time>
      </trkpt>
      <trkpt lat="45.54981" lon="0.68512">
        <ele>246</ele>
        <time>2013-01-27T08:57:59Z</time>
      </trkpt>
      <trkpt lat="45.55008" lon="0.6856">
        <ele>247</ele>
        <time>2013-01-27T08:58:14Z</time>
      </trkpt>
      <trkpt lat="45.55037" lon="0.68613">
        <ele>248</ele>
        <time>2013-01-27T08:58:27Z</time>
      </trkpt>
      <trkpt lat="45.55038" lon="0.68618">
        <ele>248</ele>
        <time>2013-01-27T08:58:28Z</time>
      </trkpt>
      <trkpt lat="45.55041" lon="0.68627">
        <ele>248</ele>
        <time>2013-01-27T08:58:30Z</time>
      </trkpt>
      <trkpt lat="45.55044" lon="0.68632">
        <ele>248</ele>
        <time>2013-01-27T08:58:31Z</time>
      </trkpt>
      <trkpt lat="45.55047" lon="0.68636">
        <ele>248</ele>
        <time>2013-01-27T08:58:32Z</time>
      </trkpt>
      <trkpt lat="45.55049" lon="0.6864">
        <ele>248</ele>
        <time>2013-01-27T08:58:33Z</time>
      </trkpt>
      <trkpt lat="45.55051" lon="0.68644">
        <ele>248</ele>
        <time>2013-01-27T08:58:34Z</time>
      </trkpt>
      <trkpt lat="45.55054" lon="0.68648">
        <ele>248</ele>
        <time>2013-01-27T08:58:35Z</time>
      </trkpt>
      <trkpt lat="45.55069" lon="0.68695">
        <ele>251</ele>
        <time>2013-01-27T08:58:46Z</time>
      </trkpt>
      <trkpt lat="45.55074" lon="0.68706">
        <ele>252</ele>
        <time>2013-01-27T08:58:48Z</time>
      </trkpt>
      <trkpt lat="45.55085" lon="0.68729">
        <ele>256</ele>
        <time>2013-01-27T08:58:53Z</time>
      </trkpt>
      <trkpt lat="45.55113" lon="0.68753">
        <ele>258</ele>
        <time>2013-01-27T08:59:06Z</time>
      </trkpt>
      <trkpt lat="45.55138" lon="0.68776">
        <ele>259</ele>
        <time>2013-01-27T08:59:16Z</time>
      </trkpt>
      <trkpt lat="45.55173" lon="0.68812">
        <ele>262</ele>
        <time>2013-01-27T08:59:31Z</time>
      </trkpt>
      <trkpt lat="45.55177" lon="0.68818">
        <ele>262</ele>
        <time>2013-01-27T08:59:33Z</time>
      </trkpt>
      <trkpt lat="45.55189" lon="0.68827">
        <ele>262</ele>
        <time>2013-01-27T08:59:39Z</time>
      </trkpt>
      <trkpt lat="45.55218" lon="0.68845">
        <ele>264</ele>
        <time>2013-01-27T08:59:50Z</time>
      </trkpt>
      <trkpt lat="45.55228" lon="0.6885">
        <ele>264</ele>
        <time>2013-01-27T08:59:54Z</time>
      </trkpt>
      <trkpt lat="45.55263" lon="0.6887">
        <ele>265</ele>
        <time>2013-01-27T09:00:08Z</time>
      </trkpt>
      <trkpt lat="45.55299" lon="0.68898">
        <ele>265</ele>
        <time>2013-01-27T09:00:21Z</time>
      </trkpt>
      <trkpt lat="45.55338" lon="0.68929">
        <ele>266</ele>
        <time>2013-01-27T09:00:36Z</time>
      </trkpt>
      <trkpt lat="45.55364" lon="0.68953">
        <ele>267</ele>
        <time>2013-01-27T09:00:46Z</time>
      </trkpt>
      <trkpt lat="45.55397" lon="0.68978">
        <ele>267</ele>
        <time>2013-01-27T09:00:58Z</time>
      </trkpt>
      <trkpt lat="45.55405" lon="0.68956">
        <ele>267</ele>
        <time>2015-06-23T10:15:20Z</time>
      </trkpt>
      <trkpt lat="45.55403" lon="0.68949">
        <ele>267</ele>
        <time>2015-06-23T10:15:21Z</time>
      </trkpt>
      <trkpt lat="45.55401" lon="0.68942">
        <ele>267</ele>
        <time>2015-06-23T10:15:22Z</time>
      </trkpt>
      <trkpt lat="45.55399" lon="0.68934">
        <ele>267</ele>
        <time>2015-06-23T10:15:23Z</time>
      </trkpt>
      <trkpt lat="45.55399" lon="0.68927">
        <ele>266</ele>
        <time>2015-06-23T10:15:24Z</time>
      </trkpt>
      <trkpt lat="45.554" lon="0.68919">
        <ele>266</ele>
        <time>2015-06-23T10:15:25Z</time>
      </trkpt>
      <trkpt lat="45.55402" lon="0.68895">
        <ele>265</ele>
        <time>2015-06-23T10:15:28Z</time>
      </trkpt>
      <trkpt lat="45.55402" lon="0.68887">
        <ele>265</ele>
        <time>2015-06-23T10:15:29Z</time>
      </trkpt>
      <trkpt lat="45.55401" lon="0.68879">
        <ele>265</ele>
        <time>2015-06-23T10:15:30Z</time>
      </trkpt>
      <trkpt lat="45.55399" lon="0.68863">
        <ele>265</ele>
        <time>2015-06-23T10:15:32Z</time>
      </trkpt>
      <trkpt lat="45.55399" lon="0.68855">
        <ele>265</ele>
        <time>2015-06-23T10:15:33Z</time>
      </trkpt>
      <trkpt lat="45.55399" lon="0.68847">
        <ele>265</ele>
        <time>2015-06-23T10:15:34Z</time>
      </trkpt>
      <trkpt lat="45.55401" lon="0.68797">
        <ele>264</ele>
        <time>2015-06-23T10:15:40Z</time>
      </trkpt>
      <trkpt lat="45.55399" lon="0.68789">
        <ele>264</ele>
        <time>2015-06-23T10:15:41Z</time>
      </trkpt>
      <trkpt lat="45.55397" lon="0.68781">
        <ele>264</ele>
        <time>2015-06-23T10:15:42Z</time>
      </trkpt>
      <trkpt lat="45.55396" lon="0.68773">
        <ele>264</ele>
        <time>2015-06-23T10:15:43Z</time>
      </trkpt>
      <trkpt lat="45.55397" lon="0.68764">
        <ele>264</ele>
        <time>2015-06-23T10:15:44Z</time>
      </trkpt>
      <trkpt lat="45.55399" lon="0.68756">
        <ele>264</ele>
        <time>2015-06-23T10:15:45Z</time>
      </trkpt>
      <trkpt lat="45.55403" lon="0.68748">
        <ele>264</ele>
        <time>2015-06-23T10:15:46Z</time>
      </trkpt>
      <trkpt lat="45.55406" lon="0.6874">
        <ele>264</ele>
        <time>2015-06-23T10:15:47Z</time>
      </trkpt>
      <trkpt lat="45.55408" lon="0.68732">
        <ele>264</ele>
        <time>2015-06-23T10:15:48Z</time>
      </trkpt>
      <trkpt lat="45.5541" lon="0.68722">
        <ele>264</ele>
        <time>2015-06-23T10:15:49Z</time>
      </trkpt>
      <trkpt lat="45.5541" lon="0.68713">
        <ele>264</ele>
        <time>2015-06-23T10:15:50Z</time>
      </trkpt>
      <trkpt lat="45.55409" lon="0.68704">
        <ele>265</ele>
        <time>2015-06-23T10:15:51Z</time>
      </trkpt>
      <trkpt lat="45.55408" lon="0.68695">
        <ele>265</ele>
        <time>2015-06-23T10:15:52Z</time>
      </trkpt>
      <trkpt lat="45.55408" lon="0.68687">
        <ele>265</ele>
        <time>2015-06-23T10:15:53Z</time>
      </trkpt>
      <trkpt lat="45.55409" lon="0.68678">
        <ele>265</ele>
        <time>2015-06-23T10:15:54Z</time>
      </trkpt>
      <trkpt lat="45.5541" lon="0.6867">
        <ele>265</ele>
        <time>2015-06-23T10:15:55Z</time>
      </trkpt>
      <trkpt lat="45.55413" lon="0.68653">
        <ele>264</ele>
        <time>2015-06-23T10:15:57Z</time>
      </trkpt>
      <trkpt lat="45.55413" lon="0.68644">
        <ele>264</ele>
        <time>2015-06-23T10:15:58Z</time>
      </trkpt>
      <trkpt lat="45.55411" lon="0.68608">
        <ele>263</ele>
        <time>2015-06-23T10:16:02Z</time>
      </trkpt>
      <trkpt lat="45.55409" lon="0.68601">
        <ele>263</ele>
        <time>2015-06-23T10:16:03Z</time>
      </trkpt>
      <trkpt lat="45.55404" lon="0.68588">
        <ele>264</ele>
        <time>2015-06-23T10:16:05Z</time>
      </trkpt>
      <trkpt lat="45.55404" lon="0.68581">
        <ele>263</ele>
        <time>2015-06-23T10:16:06Z</time>
      </trkpt>
      <trkpt lat="45.55405" lon="0.68574">
        <ele>263</ele>
        <time>2015-06-23T10:16:07Z</time>
      </trkpt>
      <trkpt lat="45.55407" lon="0.68567">
        <ele>263</ele>
        <time>2015-06-23T10:16:08Z</time>
      </trkpt>
      <trkpt lat="45.55409" lon="0.68559">
        <ele>263</ele>
        <time>2015-06-23T10:16:09Z</time>
      </trkpt>
      <trkpt lat="45.55415" lon="0.68537">
        <ele>263</ele>
        <time>2015-06-23T10:16:12Z</time>
      </trkpt>
      <trkpt lat="45.55421" lon="0.68514">
        <ele>264</ele>
        <time>2015-06-23T10:16:15Z</time>
      </trkpt>
      <trkpt lat="45.55422" lon="0.68506">
        <ele>265</ele>
        <time>2015-06-23T10:16:16Z</time>
      </trkpt>
      <trkpt lat="45.55422" lon="0.68488">
        <ele>265</ele>
        <time>2015-06-23T10:16:19Z</time>
      </trkpt>
      <trkpt lat="45.55428" lon="0.68478">
        <ele>265</ele>
        <time>2015-06-23T10:16:22Z</time>
      </trkpt>
      <trkpt lat="45.5545" lon="0.68442">
        <ele>265</ele>
        <time>2015-06-23T10:16:32Z</time>
      </trkpt>
      <trkpt lat="45.55477" lon="0.68404">
        <ele>263</ele>
        <time>2015-06-23T10:16:40Z</time>
      </trkpt>
      <trkpt lat="45.55494" lon="0.6838">
        <ele>262</ele>
        <time>2015-06-23T10:16:45Z</time>
      </trkpt>
      <trkpt lat="45.55544" lon="0.68315">
        <ele>262</ele>
        <time>2015-06-23T10:16:57Z</time>
      </trkpt>
      <trkpt lat="45.55556" lon="0.68301">
        <ele>262</ele>
        <time>2015-06-23T10:17:00Z</time>
      </trkpt>
      <trkpt lat="45.55569" lon="0.68289">
        <ele>262</ele>
        <time>2015-06-23T10:17:04Z</time>
      </trkpt>
      <trkpt lat="45.55604" lon="0.68263">
        <ele>264</ele>
        <time>2015-06-23T10:17:13Z</time>
      </trkpt>
      <trkpt lat="45.55635" lon="0.68212">
        <ele>265</ele>
        <time>2015-06-23T10:17:23Z</time>
      </trkpt>
      <trkpt lat="45.55651" lon="0.68188">
        <ele>266</ele>
        <time>2015-06-23T10:17:29Z</time>
      </trkpt>
      <trkpt lat="45.55663" lon="0.68132">
        <ele>266</ele>
        <time>2015-06-23T10:17:38Z</time>
      </trkpt>
      <trkpt lat="45.55664" lon="0.68126">
        <ele>266</ele>
        <time>2015-06-23T10:17:39Z</time>
      </trkpt>
      <trkpt lat="45.5567" lon="0.68076">
        <ele>267</ele>
        <time>2015-06-23T10:17:47Z</time>
      </trkpt>
      <trkpt lat="45.55685" lon="0.68098">
        <ele>266</ele>
        <time>2015-06-23T10:17:56Z</time>
      </trkpt>
      <trkpt lat="45.55687" lon="0.68103">
        <ele>266</ele>
        <time>2015-06-23T10:17:57Z</time>
      </trkpt>
      <trkpt lat="45.55689" lon="0.68108">
        <ele>266</ele>
        <time>2015-06-23T10:17:58Z</time>
      </trkpt>
      <trkpt lat="45.55692" lon="0.68114">
        <ele>266</ele>
        <time>2015-06-23T10:17:59Z</time>
      </trkpt>
      <trkpt lat="45.55693" lon="0.68119">
        <ele>266</ele>
        <time>2015-06-23T10:18:00Z</time>
      </trkpt>
      <trkpt lat="45.55696" lon="0.68125">
        <ele>266</ele>
        <time>2015-06-23T10:18:01Z</time>
      </trkpt>
      <trkpt lat="45.55698" lon="0.68131">
        <ele>266</ele>
        <time>2015-06-23T10:18:02Z</time>
      </trkpt>
      <trkpt lat="45.55733" lon="0.68213">
        <ele>263</ele>
        <time>2015-06-23T10:18:15Z</time>
      </trkpt>
      <trkpt lat="45.55736" lon="0.68214">
        <ele>263</ele>
        <time>2015-06-23T10:18:16Z</time>
      </trkpt>
      <trkpt lat="45.5574" lon="0.68212">
        <ele>263</ele>
        <time>2015-06-23T10:18:17Z</time>
      </trkpt>
      <trkpt lat="45.55744" lon="0.6821">
        <ele>263</ele>
        <time>2015-06-23T10:18:18Z</time>
      </trkpt>
      <trkpt lat="45.55748" lon="0.68208">
        <ele>263</ele>
        <time>2015-06-23T10:18:19Z</time>
      </trkpt>
      <trkpt lat="45.55752" lon="0.68206">
        <ele>262</ele>
        <time>2015-06-23T10:18:20Z</time>
      </trkpt>
      <trkpt lat="45.55785" lon="0.68191">
        <ele>263</ele>
        <time>2015-06-23T10:18:28Z</time>
      </trkpt>
      <trkpt lat="45.55836" lon="0.68143">
        <ele>268</ele>
        <time>2015-06-23T10:18:43Z</time>
      </trkpt>
      <trkpt lat="45.55845" lon="0.68133">
        <ele>268</ele>
        <time>2015-06-23T10:18:46Z</time>
      </trkpt>
      <trkpt lat="45.55899" lon="0.6809">
        <ele>271</ele>
        <time>2015-06-23T10:19:02Z</time>
      </trkpt>
      <trkpt lat="45.55936" lon="0.68077">
        <ele>275</ele>
        <time>2015-06-23T10:19:14Z</time>
      </trkpt>
      <trkpt lat="45.55983" lon="0.68111">
        <ele>273</ele>
        <time>2015-06-23T10:19:28Z</time>
      </trkpt>
      <trkpt lat="45.56006" lon="0.68137">
        <ele>271</ele>
        <time>2015-06-23T10:19:35Z</time>
      </trkpt>
      <trkpt lat="45.5601" lon="0.6814">
        <ele>271</ele>
        <time>2015-06-23T10:19:36Z</time>
      </trkpt>
      <trkpt lat="45.56014" lon="0.68141">
        <ele>271</ele>
        <time>2015-06-23T10:19:37Z</time>
      </trkpt>
      <trkpt lat="45.56018" lon="0.68141">
        <ele>271</ele>
        <time>2015-06-23T10:19:38Z</time>
      </trkpt>
      <trkpt lat="45.56023" lon="0.68139">
        <ele>271</ele>
        <time>2015-06-23T10:19:39Z</time>
      </trkpt>
      <trkpt lat="45.5603" lon="0.68158">
        <ele>271</ele>
        <time>2015-06-23T10:27:14Z</time>
      </trkpt>
      <trkpt lat="45.56033" lon="0.68181">
        <ele>270</ele>
        <time>2015-06-23T10:27:22Z</time>
      </trkpt>
      <trkpt lat="45.5604" lon="0.68193">
        <ele>270</ele>
        <time>2015-06-23T10:27:27Z</time>
      </trkpt>
      <trkpt lat="45.56045" lon="0.68201">
        <ele>269</ele>
        <time>2015-06-23T10:27:30Z</time>
      </trkpt>
      <trkpt lat="45.56047" lon="0.68216">
        <ele>269</ele>
        <time>2015-06-23T10:27:35Z</time>
      </trkpt>
      <trkpt lat="45.56048" lon="0.68225">
        <ele>269</ele>
        <time>2015-06-23T10:27:38Z</time>
      </trkpt>
      <trkpt lat="45.56058" lon="0.68237">
        <ele>269</ele>
        <time>2015-06-23T10:27:43Z</time>
      </trkpt>
      <trkpt lat="45.56074" lon="0.68236">
        <ele>269</ele>
        <time>2015-06-23T10:27:49Z</time>
      </trkpt>
      <trkpt lat="45.56081" lon="0.68236">
        <ele>269</ele>
        <time>2015-06-23T10:27:51Z</time>
      </trkpt>
      <trkpt lat="45.56088" lon="0.68252">
        <ele>267</ele>
        <time>2015-06-23T10:27:56Z</time>
      </trkpt>
      <trkpt lat="45.56089" lon="0.68264">
        <ele>266</ele>
        <time>2015-06-23T10:28:00Z</time>
      </trkpt>
      <trkpt lat="45.56119" lon="0.68277">
        <ele>263</ele>
        <time>2015-06-23T10:28:12Z</time>
      </trkpt>
      <trkpt lat="45.56148" lon="0.68277">
        <ele>262</ele>
        <time>2015-06-23T10:28:23Z</time>
      </trkpt>
      <trkpt lat="45.5616" lon="0.68274">
        <ele>262</ele>
        <time>2015-06-23T10:28:27Z</time>
      </trkpt>
      <trkpt lat="45.56164" lon="0.68274">
        <ele>262</ele>
        <time>2015-06-23T10:28:29Z</time>
      </trkpt>
      <trkpt lat="45.56172" lon="0.68262">
        <ele>258</ele>
        <time>2015-06-23T10:28:33Z</time>
      </trkpt>
      <trkpt lat="45.56199" lon="0.68227">
        <ele>254</ele>
        <time>2015-06-23T10:28:42Z</time>
      </trkpt>
      <trkpt lat="45.562" lon="0.68225">
        <ele>254</ele>
        <time>2015-06-23T10:28:43Z</time>
      </trkpt>
      <trkpt lat="45.56203" lon="0.68221">
        <ele>254</ele>
        <time>2015-06-23T10:28:45Z</time>
      </trkpt>
      <trkpt lat="45.5622" lon="0.68223">
        <ele>253</ele>
        <time>2015-06-23T10:28:54Z</time>
      </trkpt>
      <trkpt lat="45.56216" lon="0.6827">
        <ele>254</ele>
        <time>2015-06-23T10:29:04Z</time>
      </trkpt>
      <trkpt lat="45.56224" lon="0.68289">
        <ele>253</ele>
        <time>2015-06-23T10:29:08Z</time>
      </trkpt>
      <trkpt lat="45.56229" lon="0.68301">
        <ele>252</ele>
        <time>2015-06-23T10:29:12Z</time>
      </trkpt>
      <trkpt lat="45.56232" lon="0.68307">
        <ele>252</ele>
        <time>2015-06-23T10:29:14Z</time>
      </trkpt>
      <trkpt lat="45.56245" lon="0.68303">
        <ele>251</ele>
        <time>2015-06-23T10:29:20Z</time>
      </trkpt>
      <trkpt lat="45.56249" lon="0.68297">
        <ele>251</ele>
        <time>2015-06-23T10:29:24Z</time>
      </trkpt>
      <trkpt lat="45.56265" lon="0.68267">
        <ele>246</ele>
        <time>2015-06-23T10:29:34Z</time>
      </trkpt>
      <trkpt lat="45.5626" lon="0.68265">
        <ele>247</ele>
        <time>2015-06-23T10:29:45Z</time>
      </trkpt>
      <trkpt lat="45.56255" lon="0.68266">
        <ele>247</ele>
        <time>2015-06-23T10:29:48Z</time>
      </trkpt>
      <trkpt lat="45.56248" lon="0.68255">
        <ele>251</ele>
        <time>2015-06-23T10:29:55Z</time>
      </trkpt>
      <trkpt lat="45.5625" lon="0.68244">
        <ele>251</ele>
        <time>2015-06-23T10:30:02Z</time>
      </trkpt>
      <trkpt lat="45.56262" lon="0.68234">
        <ele>247</ele>
        <time>2015-06-23T10:30:11Z</time>
      </trkpt>
      <trkpt lat="45.56266" lon="0.68222">
        <ele>246</ele>
        <time>2015-06-23T10:30:24Z</time>
      </trkpt>
      <trkpt lat="45.56264" lon="0.68221">
        <ele>246</ele>
        <time>2015-06-23T10:30:26Z</time>
      </trkpt>
      <trkpt lat="45.56261" lon="0.68219">
        <ele>246</ele>
        <time>2015-06-23T10:30:29Z</time>
      </trkpt>
      <trkpt lat="45.5626" lon="0.68213">
        <ele>245</ele>
        <time>2015-06-23T10:30:35Z</time>
      </trkpt>
      <trkpt lat="45.56265" lon="0.68216">
        <ele>245</ele>
        <time>2015-06-23T10:30:39Z</time>
      </trkpt>
      <trkpt lat="45.56278" lon="0.68227">
        <ele>245</ele>
        <time>2015-06-23T10:30:50Z</time>
      </trkpt>
      <trkpt lat="45.5629" lon="0.68248">
        <ele>244</ele>
        <time>2015-06-23T10:31:02Z</time>
      </trkpt>
      <trkpt lat="45.56291" lon="0.68249">
        <ele>244</ele>
        <time>2015-06-23T10:31:03Z</time>
      </trkpt>
      <trkpt lat="45.56301" lon="0.68289">
        <ele>242</ele>
        <time>2015-06-23T10:31:11Z</time>
      </trkpt>
      <trkpt lat="45.56337" lon="0.68286">
        <ele>232</ele>
        <time>2015-06-23T10:31:21Z</time>
      </trkpt>
      <trkpt lat="45.56369" lon="0.68267">
        <ele>230</ele>
        <time>2015-06-23T10:31:30Z</time>
      </trkpt>
      <trkpt lat="45.56373" lon="0.68285">
        <ele>229</ele>
        <time>2015-06-23T10:31:32Z</time>
      </trkpt>
      <trkpt lat="45.56382" lon="0.68337">
        <ele>226</ele>
        <time>2015-06-23T10:31:36Z</time>
      </trkpt>
      <trkpt lat="45.56399" lon="0.6831">
        <ele>226</ele>
        <time>2015-06-23T10:31:46Z</time>
      </trkpt>
      <trkpt lat="45.56402" lon="0.68307">
        <ele>226</ele>
        <time>2015-06-23T10:31:48Z</time>
      </trkpt>
      <trkpt lat="45.56405" lon="0.68295">
        <ele>226</ele>
        <time>2015-06-23T10:31:53Z</time>
      </trkpt>
      <trkpt lat="45.56423" lon="0.68257">
        <ele>221</ele>
        <time>2015-06-23T10:32:07Z</time>
      </trkpt>
      <trkpt lat="45.56426" lon="0.68247">
        <ele>221</ele>
        <time>2015-06-23T10:32:10Z</time>
      </trkpt>
      <trkpt lat="45.56421" lon="0.6822">
        <ele>221</ele>
        <time>2015-06-23T10:32:19Z</time>
      </trkpt>
      <trkpt lat="45.56423" lon="0.68205">
        <ele>222</ele>
        <time>2015-06-23T10:32:26Z</time>
      </trkpt>
      <trkpt lat="45.56435" lon="0.68195">
        <ele>222</ele>
        <time>2015-06-23T10:32:33Z</time>
      </trkpt>
      <trkpt lat="45.56442" lon="0.68188">
        <ele>221</ele>
        <time>2015-06-23T10:32:35Z</time>
      </trkpt>
      <trkpt lat="45.56438" lon="0.68181">
        <ele>222</ele>
        <time>2011-12-27T14:41:44Z</time>
      </trkpt>
      <trkpt lat="45.56426" lon="0.68169">
        <ele>225</ele>
        <time>2011-12-27T14:41:40Z</time>
      </trkpt>
      <trkpt lat="45.564" lon="0.68131">
        <ele>230</ele>
        <time>2011-12-27T14:41:25Z</time>
      </trkpt>
      <trkpt lat="45.5639" lon="0.68131">
        <ele>230</ele>
        <time>2011-12-27T14:41:23Z</time>
      </trkpt>
      <trkpt lat="45.5638" lon="0.68134">
        <ele>231</ele>
        <time>2011-12-27T14:41:21Z</time>
      </trkpt>
      <trkpt lat="45.56326" lon="0.68143">
        <ele>238</ele>
        <time>2011-12-27T14:41:12Z</time>
      </trkpt>
      <trkpt lat="45.56303" lon="0.6814">
        <ele>239</ele>
        <time>2011-12-27T14:41:03Z</time>
      </trkpt>
      <trkpt lat="45.563" lon="0.68136">
        <ele>239</ele>
        <time>2011-12-27T14:41:01Z</time>
      </trkpt>
      <trkpt lat="45.56274" lon="0.68118">
        <ele>240</ele>
        <time>2011-12-27T14:40:51Z</time>
      </trkpt>
      <trkpt lat="45.56273" lon="0.68118">
        <ele>240</ele>
        <time>2011-12-27T14:40:30Z</time>
      </trkpt>
      <trkpt lat="45.56274" lon="0.68115">
        <ele>240</ele>
        <time>2011-12-27T14:40:18Z</time>
      </trkpt>
      <trkpt lat="45.56279" lon="0.68111">
        <ele>240</ele>
        <time>2011-12-27T14:40:08Z</time>
      </trkpt>
      <trkpt lat="45.56279" lon="0.681">
        <ele>240</ele>
        <time>2011-12-27T14:39:59Z</time>
      </trkpt>
      <trkpt lat="45.56288" lon="0.68097">
        <ele>239</ele>
        <time>2011-12-27T14:39:54Z</time>
      </trkpt>
      <trkpt lat="45.56289" lon="0.6805">
        <ele>240</ele>
        <time>2011-12-27T14:39:36Z</time>
      </trkpt>
      <trkpt lat="45.56289" lon="0.68044">
        <ele>241</ele>
        <time>2011-12-27T14:39:27Z</time>
      </trkpt>
      <trkpt lat="45.56289" lon="0.68038">
        <ele>241</ele>
        <time>2011-12-27T14:39:07Z</time>
      </trkpt>
      <trkpt lat="45.56297" lon="0.68022">
        <ele>241</ele>
        <time>2011-12-27T14:39:00Z</time>
      </trkpt>
      <trkpt lat="45.56302" lon="0.68019">
        <ele>240</ele>
        <time>2011-12-27T14:38:57Z</time>
      </trkpt>
      <trkpt lat="45.56332" lon="0.68005">
        <ele>235</ele>
        <time>2011-12-27T14:38:45Z</time>
      </trkpt>
      <trkpt lat="45.56335" lon="0.68">
        <ele>234</ele>
        <time>2011-12-27T14:38:44Z</time>
      </trkpt>
      <trkpt lat="45.56342" lon="0.67935">
        <ele>238</ele>
        <time>2011-12-27T14:38:35Z</time>
      </trkpt>
      <trkpt lat="45.56375" lon="0.67888">
        <ele>241</ele>
        <time>2011-12-27T14:38:28Z</time>
      </trkpt>
      <trkpt lat="45.56388" lon="0.67862">
        <ele>242</ele>
        <time>2011-12-27T14:38:24Z</time>
      </trkpt>
      <trkpt lat="45.56391" lon="0.67846">
        <ele>242</ele>
        <time>2011-12-27T14:38:22Z</time>
      </trkpt>
      <trkpt lat="45.56384" lon="0.67819">
        <ele>244</ele>
        <time>2011-12-27T14:38:18Z</time>
      </trkpt>
      <trkpt lat="45.56364" lon="0.67796">
        <ele>245</ele>
        <time>2011-12-27T14:38:10Z</time>
      </trkpt>
      <trkpt lat="45.56352" lon="0.67785">
        <ele>245</ele>
        <time>2011-12-27T14:37:58Z</time>
      </trkpt>
      <trkpt lat="45.56301" lon="0.67741">
        <ele>243</ele>
        <time>2011-12-27T14:37:43Z</time>
      </trkpt>
      <trkpt lat="45.56263" lon="0.67704">
        <ele>243</ele>
        <time>2011-12-27T14:37:32Z</time>
      </trkpt>
      <trkpt lat="45.56228" lon="0.67663">
        <ele>245</ele>
        <time>2011-12-27T14:37:21Z</time>
      </trkpt>
      <trkpt lat="45.56227" lon="0.67602">
        <ele>245</ele>
        <time>2011-12-27T14:37:15Z</time>
      </trkpt>
      <trkpt lat="45.56214" lon="0.67548">
        <ele>246</ele>
        <time>2011-12-27T14:37:08Z</time>
      </trkpt>
      <trkpt lat="45.56204" lon="0.67531">
        <ele>246</ele>
        <time>2011-12-27T14:37:04Z</time>
      </trkpt>
      <trkpt lat="45.56187" lon="0.67503">
        <ele>246</ele>
        <time>2011-12-27T14:36:49Z</time>
      </trkpt>
      <trkpt lat="45.56167" lon="0.67459">
        <ele>243</ele>
        <time>2011-12-27T14:36:35Z</time>
      </trkpt>
      <trkpt lat="45.56187" lon="0.67405">
        <ele>240</ele>
        <time>2011-12-27T14:36:16Z</time>
      </trkpt>
      <trkpt lat="45.56207" lon="0.67361">
        <ele>238</ele>
        <time>2011-12-27T14:36:01Z</time>
      </trkpt>
      <trkpt lat="45.56207" lon="0.67338">
        <ele>238</ele>
        <time>2011-12-27T14:35:55Z</time>
      </trkpt>
      <trkpt lat="45.56191" lon="0.67313">
        <ele>238</ele>
        <time>2011-12-27T14:35:44Z</time>
      </trkpt>
      <trkpt lat="45.56191" lon="0.67307">
        <ele>238</ele>
        <time>2011-12-27T14:35:42Z</time>
      </trkpt>
      <trkpt lat="45.56183" lon="0.67293">
        <ele>238</ele>
        <time>2011-12-27T14:35:36Z</time>
      </trkpt>
      <trkpt lat="45.56157" lon="0.67288">
        <ele>242</ele>
        <time>2011-12-27T14:35:26Z</time>
      </trkpt>
      <trkpt lat="45.56118" lon="0.67293">
        <ele>244</ele>
        <time>2011-12-27T14:35:16Z</time>
      </trkpt>
      <trkpt lat="45.56083" lon="0.67319">
        <ele>249</ele>
        <time>2011-12-27T14:35:08Z</time>
      </trkpt>
      <trkpt lat="45.56044" lon="0.67361">
        <ele>252</ele>
        <time>2011-12-27T14:34:58Z</time>
      </trkpt>
      <trkpt lat="45.56011" lon="0.67353">
        <ele>256</ele>
        <time>2011-12-27T14:34:50Z</time>
      </trkpt>
      <trkpt lat="45.56003" lon="0.67342">
        <ele>258</ele>
        <time>2011-12-27T14:34:48Z</time>
      </trkpt>
      <trkpt lat="45.55963" lon="0.6732">
        <ele>267</ele>
        <time>2011-12-27T14:34:41Z</time>
      </trkpt>
      <trkpt lat="45.55935" lon="0.67288">
        <ele>269</ele>
        <time>2011-12-27T14:34:32Z</time>
      </trkpt>
      <trkpt lat="45.55921" lon="0.67289">
        <ele>270</ele>
        <time>2011-12-27T14:34:24Z</time>
      </trkpt>
      <trkpt lat="45.55912" lon="0.67275">
        <ele>274</ele>
        <time>2011-12-27T14:34:20Z</time>
      </trkpt>
      <trkpt lat="45.5589" lon="0.67236">
        <ele>275</ele>
        <time>2011-12-27T14:34:15Z</time>
      </trkpt>
      <trkpt lat="45.55863" lon="0.67189">
        <ele>277</ele>
        <time>2011-12-27T14:34:07Z</time>
      </trkpt>
    </trkseg>
  </trk>
</gpx>